WMT734 LUKK-EDJA
Flight info
| Callsign | WMT734 |
|---|---|
| Flight time | 2h 9m |
| Altitude | 34000 |
| Route | UNIRA DCT ARPIG DCT HUMOR DCT KARIL DCT PATAK DCT MAREG DCT MATIG DCT SBG DCT TRAUN/N0336F120 L856 KPT KPT1C |
| Aircraft | A321/M-SDE3FGHIRWY/LB1 |
Departure
| Time | 2026-05-08 10:22 |
|---|---|
| Airport | Chişinău International Airport (LUKK) |
Arrival
| Time | 2026-05-08 12:31 |
|---|---|
| Airport | Memmingen Allgau Airport (EDJA) |
| Time | Latitude | Longitude | Altitude | Speed | Heading |
|---|---|---|---|---|---|
| 2026-05-08 09:59 | 46.93259 | 28.93741 | 406 ft | 0 kts | 99° |
| 2026-05-08 10:15 | 46.93258 | 28.93751 | 408 ft | 3 kts | 99° |
| 2026-05-08 10:15 | 46.93245 | 28.93801 | 406 ft | 6 kts | 137° |
| 2026-05-08 10:15 | 46.93196 | 28.93810 | 408 ft | 9 kts | 185° |
| 2026-05-08 10:16 | 46.93130 | 28.93760 | 406 ft | 14 kts | 255° |
| 2026-05-08 10:16 | 46.93138 | 28.93604 | 410 ft | 17 kts | 277° |
| 2026-05-08 10:16 | 46.93152 | 28.93413 | 411 ft | 21 kts | 275° |
| 2026-05-08 10:16 | 46.93172 | 28.93175 | 410 ft | 26 kts | 278° |
| 2026-05-08 10:17 | 46.93193 | 28.92889 | 408 ft | 31 kts | 275° |
| 2026-05-08 10:17 | 46.93225 | 28.92567 | 406 ft | 32 kts | 277° |
| 2026-05-08 10:17 | 46.93250 | 28.92244 | 407 ft | 31 kts | 277° |
| 2026-05-08 10:17 | 46.93243 | 28.92055 | 407 ft | 16 kts | 227° |
| 2026-05-08 10:18 | 46.93145 | 28.92001 | 408 ft | 15 kts | 193° |
| 2026-05-08 10:18 | 46.93043 | 28.91986 | 408 ft | 15 kts | 177° |
| 2026-05-08 10:18 | 46.92939 | 28.91993 | 408 ft | 15 kts | 178° |
| 2026-05-08 10:18 | 46.92833 | 28.91999 | 408 ft | 15 kts | 178° |
| 2026-05-08 10:19 | 46.92760 | 28.91925 | 408 ft | 14 kts | 257° |
| 2026-05-08 10:19 | 46.92751 | 28.91763 | 407 ft | 19 kts | 268° |
| 2026-05-08 10:19 | 46.92748 | 28.91546 | 408 ft | 24 kts | 269° |
| 2026-05-08 10:20 | 46.92736 | 28.90980 | 409 ft | 22 kts | 268° |
| 2026-05-08 10:20 | 46.92766 | 28.90807 | 405 ft | 17 kts | 284° |
| 2026-05-08 10:20 | 46.92743 | 28.90774 | 408 ft | 4 kts | 130° |
| 2026-05-08 10:20 | 46.92735 | 28.90840 | 405 ft | 10 kts | 86° |
| 2026-05-08 10:21 | 46.92737 | 28.90966 | 402 ft | 16 kts | 90° |
| 2026-05-08 10:21 | 46.92743 | 28.91355 | 407 ft | 72 kts | 89° |
| 2026-05-08 10:21 | 46.92765 | 28.92403 | 405 ft | 134 kts | 88° |
| 2026-05-08 10:21 | 46.92774 | 28.94003 | 563 ft | 170 kts | 94° |
| 2026-05-08 10:22 | 46.92790 | 28.95711 | 1270 ft | 167 kts | 94° |
| 2026-05-08 10:22 | 46.92814 | 28.97425 | 1905 ft | 172 kts | 94° |
| 2026-05-08 10:22 | 46.92820 | 28.99261 | 2257 ft | 189 kts | 95° |
| 2026-05-08 10:22 | 46.92808 | 29.01259 | 2624 ft | 205 kts | 95° |
| 2026-05-08 10:23 | 46.92837 | 29.03442 | 2892 ft | 224 kts | 92° |
| 2026-05-08 10:23 | 46.92991 | 29.05810 | 3111 ft | 248 kts | 80° |
| 2026-05-08 10:23 | 46.93668 | 29.08294 | 3353 ft | 276 kts | 60° |
| 2026-05-08 10:23 | 46.94923 | 29.10470 | 3996 ft | 283 kts | 41° |
| 2026-05-08 10:24 | 46.96565 | 29.11981 | 4757 ft | 285 kts | 23° |
| 2026-05-08 10:24 | 46.98487 | 29.12739 | 5409 ft | 289 kts | 4° |
| 2026-05-08 10:24 | 47.00476 | 29.12514 | 6078 ft | 288 kts | 341° |
| 2026-05-08 10:24 | 47.02286 | 29.11303 | 6762 ft | 286 kts | 322° |
| 2026-05-08 10:25 | 47.03731 | 29.09323 | 7370 ft | 284 kts | 303° |
| 2026-05-08 10:25 | 47.04663 | 29.06803 | 8070 ft | 281 kts | 285° |
| 2026-05-08 10:25 | 47.04960 | 29.04969 | 8522 ft | 279 kts | 272° |
| 2026-05-08 10:25 | 47.04905 | 29.02137 | 9196 ft | 278 kts | 258° |
| 2026-05-08 10:26 | 47.04677 | 28.99297 | 9858 ft | 282 kts | 263° |
| 2026-05-08 10:26 | 47.04621 | 28.96400 | 10474 ft | 287 kts | 269° |
| 2026-05-08 10:26 | 47.04762 | 28.93461 | 11069 ft | 292 kts | 274° |
| 2026-05-08 10:26 | 47.05104 | 28.90508 | 11685 ft | 296 kts | 279° |
| 2026-05-08 10:27 | 47.05648 | 28.87577 | 12292 ft | 300 kts | 285° |
| 2026-05-08 10:27 | 47.06379 | 28.84659 | 12753 ft | 312 kts | 288° |
| 2026-05-08 10:27 | 47.07173 | 28.81589 | 12886 ft | 332 kts | 288° |
| 2026-05-08 10:27 | 47.08011 | 28.78331 | 13020 ft | 350 kts | 288° |
| 2026-05-08 10:28 | 47.08884 | 28.74920 | 13305 ft | 362 kts | 288° |
| 2026-05-08 10:28 | 47.09775 | 28.71433 | 13830 ft | 367 kts | 288° |
| 2026-05-08 10:28 | 47.10675 | 28.67914 | 14358 ft | 370 kts | 288° |
| 2026-05-08 10:28 | 47.11419 | 28.64351 | 14875 ft | 370 kts | 279° |
| 2026-05-08 10:29 | 47.11756 | 28.60609 | 15432 ft | 371 kts | 273° |
| 2026-05-08 10:29 | 47.12014 | 28.56831 | 15998 ft | 372 kts | 273° |
| 2026-05-08 10:29 | 47.12277 | 28.53034 | 16560 ft | 375 kts | 274° |
| 2026-05-08 10:29 | 47.12546 | 28.49212 | 17114 ft | 378 kts | 274° |
| 2026-05-08 10:30 | 47.12818 | 28.45368 | 17665 ft | 380 kts | 273° |
| 2026-05-08 10:30 | 47.13089 | 28.41495 | 18209 ft | 382 kts | 274° |
| 2026-05-08 10:30 | 47.13359 | 28.37593 | 18685 ft | 385 kts | 274° |
| 2026-05-08 10:30 | 47.13630 | 28.33664 | 19140 ft | 388 kts | 274° |
| 2026-05-08 10:31 | 47.13900 | 28.29711 | 19604 ft | 390 kts | 274° |
| 2026-05-08 10:31 | 47.14168 | 28.25727 | 20089 ft | 393 kts | 274° |
| 2026-05-08 10:31 | 47.14435 | 28.21725 | 20578 ft | 395 kts | 274° |
| 2026-05-08 10:31 | 47.14704 | 28.17690 | 21039 ft | 397 kts | 274° |
| 2026-05-08 10:32 | 47.14974 | 28.13642 | 21483 ft | 399 kts | 274° |
| 2026-05-08 10:32 | 47.15246 | 28.09567 | 21944 ft | 401 kts | 274° |
| 2026-05-08 10:32 | 47.15517 | 28.05473 | 22375 ft | 404 kts | 274° |
| 2026-05-08 10:32 | 47.15789 | 28.01358 | 22789 ft | 406 kts | 274° |
| 2026-05-08 10:33 | 47.16061 | 27.97213 | 23218 ft | 408 kts | 274° |
| 2026-05-08 10:33 | 47.16331 | 27.93056 | 23627 ft | 410 kts | 274° |
| 2026-05-08 10:33 | 47.16604 | 27.88882 | 23976 ft | 412 kts | 275° |
| 2026-05-08 10:33 | 47.17145 | 27.84793 | 24311 ft | 415 kts | 285° |
| 2026-05-08 10:34 | 47.18163 | 27.80814 | 24654 ft | 418 kts | 292° |
| 2026-05-08 10:34 | 47.19371 | 27.76922 | 24995 ft | 420 kts | 292° |
| 2026-05-08 10:34 | 47.20579 | 27.73005 | 25333 ft | 421 kts | 292° |
| 2026-05-08 10:34 | 47.21786 | 27.69069 | 25668 ft | 422 kts | 292° |
| 2026-05-08 10:35 | 47.22992 | 27.65117 | 26003 ft | 424 kts | 292° |
| 2026-05-08 10:35 | 47.24202 | 27.61148 | 26344 ft | 425 kts | 292° |
| 2026-05-08 10:35 | 47.25415 | 27.57170 | 26668 ft | 427 kts | 292° |
| 2026-05-08 10:35 | 47.26632 | 27.53174 | 26997 ft | 429 kts | 292° |
| 2026-05-08 10:36 | 47.27854 | 27.49164 | 27319 ft | 430 kts | 292° |
| 2026-05-08 10:36 | 47.29077 | 27.45136 | 27631 ft | 432 kts | 292° |
| 2026-05-08 10:36 | 47.30302 | 27.41082 | 27937 ft | 433 kts | 292° |
| 2026-05-08 10:36 | 47.31526 | 27.37020 | 28251 ft | 435 kts | 292° |
| 2026-05-08 10:37 | 47.32751 | 27.32942 | 28545 ft | 436 kts | 291° |
| 2026-05-08 10:37 | 47.33731 | 27.28715 | 28835 ft | 436 kts | 283° |
| 2026-05-08 10:37 | 47.34341 | 27.24338 | 29136 ft | 437 kts | 280° |
| 2026-05-08 10:37 | 47.34918 | 27.19925 | 29438 ft | 438 kts | 280° |
| 2026-05-08 10:38 | 47.35498 | 27.15509 | 29747 ft | 440 kts | 280° |
| 2026-05-08 10:38 | 47.36079 | 27.11076 | 30096 ft | 439 kts | 280° |
| 2026-05-08 10:38 | 47.36655 | 27.06661 | 30477 ft | 437 kts | 280° |
| 2026-05-08 10:38 | 47.37229 | 27.02260 | 30832 ft | 436 kts | 280° |
| 2026-05-08 10:39 | 47.37800 | 26.97876 | 31176 ft | 434 kts | 280° |
| 2026-05-08 10:39 | 47.38361 | 26.93557 | 31523 ft | 433 kts | 280° |
| 2026-05-08 10:39 | 47.38923 | 26.89202 | 31870 ft | 432 kts | 280° |
| 2026-05-08 10:39 | 47.39481 | 26.84853 | 32211 ft | 430 kts | 280° |
| 2026-05-08 10:40 | 47.40034 | 26.80523 | 32546 ft | 429 kts | 280° |
| 2026-05-08 10:40 | 47.40584 | 26.76190 | 32870 ft | 428 kts | 280° |
| 2026-05-08 10:40 | 47.41132 | 26.71882 | 33205 ft | 427 kts | 280° |
| 2026-05-08 10:40 | 47.41678 | 26.67582 | 33530 ft | 426 kts | 280° |
| 2026-05-08 10:41 | 47.42221 | 26.63288 | 33848 ft | 425 kts | 279° |
| 2026-05-08 10:41 | 47.42758 | 26.59003 | 34002 ft | 424 kts | 279° |
| 2026-05-08 10:41 | 47.43293 | 26.54727 | 34028 ft | 422 kts | 279° |
| 2026-05-08 10:42 | 47.44350 | 26.46226 | 34024 ft | 420 kts | 279° |
| 2026-05-08 10:42 | 47.45398 | 26.37741 | 34028 ft | 419 kts | 279° |
| 2026-05-08 10:43 | 47.46443 | 26.29267 | 34027 ft | 419 kts | 279° |
| 2026-05-08 10:43 | 47.47484 | 26.20788 | 34035 ft | 418 kts | 279° |
| 2026-05-08 10:44 | 47.48512 | 26.12318 | 34022 ft | 418 kts | 279° |
| 2026-05-08 10:44 | 47.49542 | 26.03835 | 34040 ft | 419 kts | 279° |
| 2026-05-08 10:45 | 47.50564 | 25.95355 | 34054 ft | 419 kts | 279° |
| 2026-05-08 10:45 | 47.51570 | 25.86865 | 34053 ft | 419 kts | 278° |
| 2026-05-08 10:46 | 47.52433 | 25.78402 | 34049 ft | 418 kts | 277° |
| 2026-05-08 10:46 | 47.53205 | 25.69872 | 34058 ft | 418 kts | 276° |
| 2026-05-08 10:47 | 47.53988 | 25.61341 | 34060 ft | 418 kts | 277° |
| 2026-05-08 10:47 | 47.54789 | 25.52818 | 34069 ft | 418 kts | 277° |
| 2026-05-08 10:48 | 47.55586 | 25.44287 | 34073 ft | 418 kts | 277° |
| 2026-05-08 10:48 | 47.56375 | 25.35769 | 34056 ft | 417 kts | 276° |
| 2026-05-08 10:49 | 47.57152 | 25.27256 | 34057 ft | 417 kts | 276° |
| 2026-05-08 10:49 | 47.57929 | 25.18740 | 34051 ft | 417 kts | 276° |
| 2026-05-08 10:50 | 47.58692 | 25.10284 | 34060 ft | 417 kts | 276° |
| 2026-05-08 10:50 | 47.59448 | 25.01757 | 34077 ft | 417 kts | 276° |
| 2026-05-08 10:51 | 47.60200 | 24.93239 | 34078 ft | 417 kts | 276° |
| 2026-05-08 10:51 | 47.60954 | 24.84716 | 34082 ft | 417 kts | 276° |
| 2026-05-08 10:52 | 47.61694 | 24.76183 | 34081 ft | 417 kts | 276° |
| 2026-05-08 10:52 | 47.62429 | 24.67666 | 34082 ft | 416 kts | 276° |
| 2026-05-08 10:53 | 47.63148 | 24.59221 | 34089 ft | 416 kts | 276° |
| 2026-05-08 10:53 | 47.63875 | 24.50717 | 34076 ft | 416 kts | 276° |
| 2026-05-08 10:54 | 47.64595 | 24.42215 | 34077 ft | 415 kts | 276° |
| 2026-05-08 10:54 | 47.65303 | 24.33714 | 34084 ft | 415 kts | 276° |
| 2026-05-08 10:55 | 47.66000 | 24.25211 | 34091 ft | 415 kts | 276° |
| 2026-05-08 10:55 | 47.66690 | 24.16721 | 34083 ft | 414 kts | 276° |
| 2026-05-08 10:56 | 47.67373 | 24.08241 | 34070 ft | 414 kts | 275° |
| 2026-05-08 10:56 | 47.68050 | 23.99756 | 34083 ft | 413 kts | 276° |
| 2026-05-08 10:57 | 47.68725 | 23.91286 | 34091 ft | 413 kts | 275° |
| 2026-05-08 10:57 | 47.69728 | 23.78584 | 34095 ft | 413 kts | 275° |
| 2026-05-08 10:58 | 47.70381 | 23.70126 | 34106 ft | 412 kts | 275° |
| 2026-05-08 10:58 | 47.71029 | 23.61724 | 34096 ft | 412 kts | 275° |
| 2026-05-08 10:59 | 47.71674 | 23.53280 | 34115 ft | 411 kts | 275° |
| 2026-05-08 10:59 | 47.72310 | 23.44849 | 34112 ft | 411 kts | 275° |
| 2026-05-08 11:00 | 47.72939 | 23.36355 | 34112 ft | 411 kts | 274° |
| 2026-05-08 11:00 | 47.73553 | 23.27988 | 34099 ft | 410 kts | 274° |
| 2026-05-08 11:01 | 47.74175 | 23.19571 | 34097 ft | 410 kts | 274° |
| 2026-05-08 11:01 | 47.74788 | 23.11158 | 34089 ft | 410 kts | 274° |
| 2026-05-08 11:02 | 47.75683 | 22.98523 | 34099 ft | 409 kts | 274° |
| 2026-05-08 11:03 | 47.76276 | 22.90106 | 34098 ft | 409 kts | 274° |
| 2026-05-08 11:03 | 47.76862 | 22.81693 | 34099 ft | 409 kts | 274° |
| 2026-05-08 11:04 | 47.77442 | 22.73274 | 34096 ft | 410 kts | 274° |
| 2026-05-08 11:04 | 47.78014 | 22.64850 | 34091 ft | 410 kts | 273° |
| 2026-05-08 11:05 | 47.78582 | 22.56419 | 34097 ft | 410 kts | 273° |
| 2026-05-08 11:05 | 47.79144 | 22.47979 | 34094 ft | 410 kts | 273° |
| 2026-05-08 11:06 | 47.79748 | 22.39550 | 34084 ft | 410 kts | 275° |
| 2026-05-08 11:06 | 47.80593 | 22.31149 | 34088 ft | 411 kts | 276° |
| 2026-05-08 11:07 | 47.81497 | 22.22750 | 34082 ft | 411 kts | 276° |
| 2026-05-08 11:07 | 47.82341 | 22.14342 | 34088 ft | 411 kts | 275° |
| 2026-05-08 11:08 | 47.83135 | 22.05984 | 34092 ft | 411 kts | 275° |
| 2026-05-08 11:08 | 47.83921 | 21.97564 | 34098 ft | 411 kts | 275° |
| 2026-05-08 11:09 | 47.84714 | 21.89135 | 34103 ft | 411 kts | 275° |
| 2026-05-08 11:09 | 47.85511 | 21.80696 | 34106 ft | 411 kts | 275° |
| 2026-05-08 11:10 | 47.86297 | 21.72274 | 34098 ft | 410 kts | 275° |
| 2026-05-08 11:10 | 47.87072 | 21.63908 | 34106 ft | 410 kts | 274° |
| 2026-05-08 11:11 | 47.87841 | 21.55485 | 34103 ft | 411 kts | 274° |
| 2026-05-08 11:11 | 47.88598 | 21.47052 | 34104 ft | 411 kts | 274° |
| 2026-05-08 11:12 | 47.89356 | 21.38615 | 34097 ft | 411 kts | 274° |
| 2026-05-08 11:12 | 47.90112 | 21.30180 | 34093 ft | 411 kts | 274° |
| 2026-05-08 11:13 | 47.90735 | 21.23164 | 34091 ft | 410 kts | 274° |
| 2026-05-08 11:13 | 47.91598 | 21.13353 | 34082 ft | 411 kts | 274° |
| 2026-05-08 11:14 | 47.92211 | 21.06284 | 34079 ft | 410 kts | 274° |
| 2026-05-08 11:14 | 47.92934 | 20.97845 | 34084 ft | 410 kts | 274° |
| 2026-05-08 11:15 | 47.93651 | 20.89402 | 34083 ft | 410 kts | 274° |
| 2026-05-08 11:15 | 47.94369 | 20.81015 | 34081 ft | 410 kts | 274° |
| 2026-05-08 11:16 | 47.95079 | 20.72580 | 34084 ft | 410 kts | 273° |
| 2026-05-08 11:16 | 47.95783 | 20.64136 | 34081 ft | 410 kts | 273° |
| 2026-05-08 11:17 | 47.96479 | 20.55694 | 34084 ft | 410 kts | 273° |
| 2026-05-08 11:17 | 47.97168 | 20.47248 | 34085 ft | 410 kts | 273° |
| 2026-05-08 11:18 | 47.97856 | 20.38799 | 34084 ft | 410 kts | 273° |
| 2026-05-08 11:18 | 47.98534 | 20.30331 | 34083 ft | 411 kts | 273° |
| 2026-05-08 11:19 | 47.99204 | 20.21909 | 34080 ft | 411 kts | 273° |
| 2026-05-08 11:19 | 47.99869 | 20.13436 | 34083 ft | 411 kts | 273° |
| 2026-05-08 11:20 | 48.00531 | 20.04967 | 34086 ft | 410 kts | 273° |
| 2026-05-08 11:20 | 48.01183 | 19.96507 | 34088 ft | 410 kts | 273° |
| 2026-05-08 11:21 | 48.01830 | 19.88052 | 34089 ft | 410 kts | 272° |
| 2026-05-08 11:21 | 48.02471 | 19.79599 | 34088 ft | 409 kts | 272° |
| 2026-05-08 11:22 | 48.03108 | 19.71157 | 34089 ft | 409 kts | 272° |
| 2026-05-08 11:22 | 48.03734 | 19.62713 | 34086 ft | 408 kts | 272° |
| 2026-05-08 11:23 | 48.04351 | 19.54281 | 34087 ft | 408 kts | 272° |
| 2026-05-08 11:23 | 48.04965 | 19.45857 | 34081 ft | 408 kts | 272° |
| 2026-05-08 11:24 | 48.05570 | 19.37441 | 34085 ft | 407 kts | 272° |
| 2026-05-08 11:24 | 48.06168 | 19.29025 | 34085 ft | 407 kts | 272° |
| 2026-05-08 11:25 | 48.06754 | 19.20664 | 34088 ft | 406 kts | 272° |
| 2026-05-08 11:25 | 48.07342 | 19.12263 | 34086 ft | 406 kts | 272° |
| 2026-05-08 11:26 | 48.07898 | 19.03866 | 34085 ft | 405 kts | 271° |
| 2026-05-08 11:26 | 48.08415 | 18.95481 | 34086 ft | 405 kts | 271° |
| 2026-05-08 11:27 | 48.08924 | 18.87095 | 34088 ft | 405 kts | 271° |
| 2026-05-08 11:27 | 48.09434 | 18.78705 | 34092 ft | 405 kts | 271° |
| 2026-05-08 11:28 | 48.09941 | 18.70316 | 34082 ft | 404 kts | 271° |
| 2026-05-08 11:28 | 48.10443 | 18.61937 | 34086 ft | 404 kts | 271° |
| 2026-05-08 11:29 | 48.10934 | 18.53571 | 34085 ft | 404 kts | 271° |
| 2026-05-08 11:29 | 48.11426 | 18.45201 | 34083 ft | 403 kts | 271° |
| 2026-05-08 11:30 | 48.11910 | 18.36840 | 34088 ft | 403 kts | 271° |
| 2026-05-08 11:30 | 48.12382 | 18.28488 | 34081 ft | 403 kts | 271° |
| 2026-05-08 11:31 | 48.12847 | 18.20199 | 34081 ft | 402 kts | 271° |
| 2026-05-08 11:31 | 48.13305 | 18.11861 | 34085 ft | 402 kts | 270° |
| 2026-05-08 11:32 | 48.13761 | 18.03523 | 34084 ft | 401 kts | 271° |
| 2026-05-08 11:32 | 48.14209 | 17.95195 | 34086 ft | 401 kts | 270° |
| 2026-05-08 11:33 | 48.14651 | 17.86869 | 34082 ft | 401 kts | 270° |
| 2026-05-08 11:33 | 48.15093 | 17.78550 | 34081 ft | 401 kts | 270° |
| 2026-05-08 11:34 | 48.15525 | 17.70235 | 34090 ft | 400 kts | 270° |
| 2026-05-08 11:34 | 48.15944 | 17.61974 | 34091 ft | 400 kts | 270° |
| 2026-05-08 11:35 | 48.16361 | 17.53664 | 34097 ft | 400 kts | 270° |
| 2026-05-08 11:35 | 48.16769 | 17.45342 | 34102 ft | 400 kts | 270° |
| 2026-05-08 11:36 | 48.17175 | 17.37029 | 34102 ft | 400 kts | 270° |
| 2026-05-08 11:36 | 48.17581 | 17.28724 | 34112 ft | 399 kts | 273° |
| 2026-05-08 11:37 | 48.17972 | 17.20463 | 34115 ft | 396 kts | 272° |
| 2026-05-08 11:37 | 48.18349 | 17.12243 | 34114 ft | 395 kts | 272° |
| 2026-05-08 11:38 | 48.18723 | 17.04048 | 34112 ft | 394 kts | 272° |
| 2026-05-08 11:38 | 48.19028 | 16.95867 | 34110 ft | 392 kts | 267° |
| 2026-05-08 11:39 | 48.18832 | 16.87701 | 34111 ft | 392 kts | 267° |
| 2026-05-08 11:39 | 48.18635 | 16.79590 | 34109 ft | 392 kts | 267° |
| 2026-05-08 11:40 | 48.18431 | 16.71437 | 34106 ft | 391 kts | 267° |
| 2026-05-08 11:40 | 48.18218 | 16.63295 | 34108 ft | 391 kts | 267° |
| 2026-05-08 11:41 | 48.17994 | 16.55163 | 34105 ft | 391 kts | 266° |
| 2026-05-08 11:41 | 48.17762 | 16.47036 | 34108 ft | 390 kts | 266° |
| 2026-05-08 11:42 | 48.17533 | 16.38901 | 34109 ft | 390 kts | 266° |
| 2026-05-08 11:42 | 48.17301 | 16.30776 | 34115 ft | 390 kts | 266° |
| 2026-05-08 11:43 | 48.17060 | 16.22654 | 34122 ft | 390 kts | 266° |
| 2026-05-08 11:43 | 48.16814 | 16.14543 | 34120 ft | 390 kts | 266° |
| 2026-05-08 11:44 | 48.16562 | 16.06435 | 34117 ft | 389 kts | 266° |
| 2026-05-08 11:44 | 48.16313 | 15.98339 | 34118 ft | 389 kts | 266° |
| 2026-05-08 11:45 | 48.16055 | 15.90248 | 34113 ft | 389 kts | 266° |
| 2026-05-08 11:45 | 48.15782 | 15.82165 | 34108 ft | 388 kts | 266° |
| 2026-05-08 11:46 | 48.15511 | 15.74089 | 34111 ft | 388 kts | 266° |
| 2026-05-08 11:46 | 48.15232 | 15.66025 | 34109 ft | 388 kts | 265° |
| 2026-05-08 11:47 | 48.14946 | 15.57961 | 34108 ft | 388 kts | 265° |
| 2026-05-08 11:47 | 48.14657 | 15.49900 | 34107 ft | 387 kts | 265° |
| 2026-05-08 11:48 | 48.14363 | 15.41896 | 34110 ft | 387 kts | 265° |
| 2026-05-08 11:48 | 48.14059 | 15.33844 | 34108 ft | 387 kts | 265° |
| 2026-05-08 11:49 | 48.13754 | 15.25792 | 34106 ft | 387 kts | 265° |
| 2026-05-08 11:49 | 48.13446 | 15.17756 | 34103 ft | 387 kts | 265° |
| 2026-05-08 11:50 | 48.13124 | 15.09722 | 34105 ft | 386 kts | 265° |
| 2026-05-08 11:50 | 48.12801 | 15.01688 | 34108 ft | 386 kts | 265° |
| 2026-05-08 11:51 | 48.12479 | 14.93667 | 34107 ft | 386 kts | 264° |
| 2026-05-08 11:51 | 48.12142 | 14.85647 | 34104 ft | 386 kts | 264° |
| 2026-05-08 11:52 | 48.11800 | 14.77634 | 34104 ft | 386 kts | 264° |
| 2026-05-08 11:52 | 48.11455 | 14.69625 | 34105 ft | 386 kts | 264° |
| 2026-05-08 11:53 | 48.11102 | 14.61623 | 34103 ft | 386 kts | 264° |
| 2026-05-08 11:53 | 48.10746 | 14.53615 | 34105 ft | 386 kts | 264° |
| 2026-05-08 11:54 | 48.10386 | 14.45608 | 34102 ft | 386 kts | 264° |
| 2026-05-08 11:54 | 48.10025 | 14.37601 | 34102 ft | 386 kts | 264° |
| 2026-05-08 11:55 | 48.09656 | 14.29587 | 34101 ft | 386 kts | 263° |
| 2026-05-08 11:55 | 48.09270 | 14.21574 | 34100 ft | 386 kts | 263° |
| 2026-05-08 11:56 | 48.08888 | 14.13615 | 34099 ft | 386 kts | 263° |
| 2026-05-08 11:56 | 48.08496 | 14.05600 | 34104 ft | 386 kts | 263° |
| 2026-05-08 11:57 | 48.08103 | 13.97569 | 34109 ft | 387 kts | 263° |
| 2026-05-08 11:57 | 48.07707 | 13.89554 | 34110 ft | 386 kts | 263° |
| 2026-05-08 11:58 | 48.07301 | 13.81534 | 34113 ft | 386 kts | 263° |
| 2026-05-08 11:58 | 48.06890 | 13.73526 | 34114 ft | 386 kts | 263° |
| 2026-05-08 11:59 | 48.06258 | 13.61575 | 34111 ft | 386 kts | 262° |
| 2026-05-08 11:59 | 48.05829 | 13.53576 | 34110 ft | 386 kts | 262° |
| 2026-05-08 12:00 | 48.05228 | 13.45612 | 34109 ft | 385 kts | 260° |
| 2026-05-08 12:00 | 48.04635 | 13.39022 | 34110 ft | 384 kts | 259° |
| 2026-05-08 12:01 | 48.03805 | 13.29808 | 34105 ft | 385 kts | 259° |
| 2026-05-08 12:01 | 48.03119 | 13.21878 | 34095 ft | 385 kts | 260° |
| 2026-05-08 12:02 | 48.02550 | 13.15227 | 34090 ft | 385 kts | 259° |
| 2026-05-08 12:02 | 48.01855 | 13.07296 | 34093 ft | 385 kts | 259° |
| 2026-05-08 12:03 | 48.01157 | 12.99412 | 34091 ft | 386 kts | 259° |
| 2026-05-08 12:03 | 48.00451 | 12.91475 | 34087 ft | 386 kts | 259° |
| 2026-05-08 12:04 | 47.99742 | 12.83525 | 34093 ft | 386 kts | 259° |
| 2026-05-08 12:04 | 47.99029 | 12.75579 | 34100 ft | 386 kts | 259° |
| 2026-05-08 12:05 | 47.98300 | 12.67635 | 34104 ft | 386 kts | 259° |
| 2026-05-08 12:05 | 47.97563 | 12.59679 | 34091 ft | 387 kts | 259° |
| 2026-05-08 12:06 | 47.96827 | 12.51729 | 34090 ft | 387 kts | 259° |
| 2026-05-08 12:06 | 47.96461 | 12.47751 | 33732 ft | 387 kts | 259° |
| 2026-05-08 12:06 | 47.96095 | 12.43781 | 33183 ft | 385 kts | 259° |
| 2026-05-08 12:07 | 47.95734 | 12.39865 | 32858 ft | 377 kts | 259° |
| 2026-05-08 12:07 | 47.95378 | 12.36016 | 32464 ft | 372 kts | 259° |
| 2026-05-08 12:07 | 47.95022 | 12.32208 | 31996 ft | 369 kts | 259° |
| 2026-05-08 12:07 | 47.94666 | 12.28436 | 31513 ft | 366 kts | 259° |
| 2026-05-08 12:08 | 47.94309 | 12.24685 | 31030 ft | 364 kts | 259° |
| 2026-05-08 12:08 | 47.93954 | 12.20959 | 30552 ft | 362 kts | 259° |
| 2026-05-08 12:08 | 47.93600 | 12.17252 | 30071 ft | 360 kts | 260° |
| 2026-05-08 12:08 | 47.93243 | 12.13557 | 29527 ft | 358 kts | 260° |
| 2026-05-08 12:09 | 47.92885 | 12.09884 | 28987 ft | 357 kts | 260° |
| 2026-05-08 12:09 | 47.92530 | 12.06233 | 28471 ft | 355 kts | 260° |
| 2026-05-08 12:09 | 47.92173 | 12.02590 | 27974 ft | 354 kts | 260° |
| 2026-05-08 12:09 | 47.91819 | 11.98969 | 27492 ft | 353 kts | 260° |
| 2026-05-08 12:10 | 47.91464 | 11.95353 | 27047 ft | 352 kts | 260° |
| 2026-05-08 12:10 | 47.91113 | 11.91789 | 26602 ft | 351 kts | 260° |
| 2026-05-08 12:10 | 47.90757 | 11.88199 | 26166 ft | 350 kts | 260° |
| 2026-05-08 12:10 | 47.90402 | 11.84623 | 25730 ft | 349 kts | 260° |
| 2026-05-08 12:11 | 47.90045 | 11.81053 | 25297 ft | 348 kts | 260° |
| 2026-05-08 12:11 | 47.89689 | 11.77493 | 24850 ft | 347 kts | 261° |
| 2026-05-08 12:11 | 47.89336 | 11.73940 | 24426 ft | 346 kts | 261° |
| 2026-05-08 12:11 | 47.88986 | 11.70401 | 23997 ft | 345 kts | 261° |
| 2026-05-08 12:12 | 47.88635 | 11.66864 | 23547 ft | 344 kts | 261° |
| 2026-05-08 12:12 | 47.88284 | 11.63348 | 23054 ft | 343 kts | 261° |
| 2026-05-08 12:12 | 47.87933 | 11.59839 | 22569 ft | 342 kts | 261° |
| 2026-05-08 12:12 | 47.87584 | 11.56346 | 22095 ft | 340 kts | 261° |
| 2026-05-08 12:13 | 47.87232 | 11.52874 | 21632 ft | 338 kts | 261° |
| 2026-05-08 12:13 | 47.86879 | 11.49415 | 21179 ft | 337 kts | 261° |
| 2026-05-08 12:13 | 47.86528 | 11.45980 | 20734 ft | 335 kts | 261° |
| 2026-05-08 12:13 | 47.86175 | 11.42551 | 20299 ft | 334 kts | 261° |
| 2026-05-08 12:14 | 47.85822 | 11.39139 | 19866 ft | 333 kts | 261° |
| 2026-05-08 12:14 | 47.85470 | 11.35740 | 19443 ft | 332 kts | 261° |
| 2026-05-08 12:14 | 47.85120 | 11.32355 | 19028 ft | 330 kts | 261° |
| 2026-05-08 12:14 | 47.84773 | 11.28983 | 18587 ft | 329 kts | 261° |
| 2026-05-08 12:15 | 47.84426 | 11.25618 | 18130 ft | 328 kts | 261° |
| 2026-05-08 12:15 | 47.84081 | 11.22269 | 17666 ft | 327 kts | 261° |
| 2026-05-08 12:15 | 47.83738 | 11.18938 | 17236 ft | 325 kts | 261° |
| 2026-05-08 12:15 | 47.83391 | 11.15622 | 16813 ft | 323 kts | 261° |
| 2026-05-08 12:16 | 47.83044 | 11.12330 | 16403 ft | 321 kts | 261° |
| 2026-05-08 12:16 | 47.82698 | 11.09058 | 15996 ft | 319 kts | 261° |
| 2026-05-08 12:16 | 47.82469 | 11.06902 | 15720 ft | 318 kts | 261° |
| 2026-05-08 12:16 | 47.82223 | 11.04600 | 15415 ft | 317 kts | 261° |
| 2026-05-08 12:17 | 47.81879 | 11.01368 | 15017 ft | 315 kts | 261° |
| 2026-05-08 12:17 | 47.81536 | 10.98144 | 14615 ft | 314 kts | 261° |
| 2026-05-08 12:17 | 47.81194 | 10.94938 | 14219 ft | 312 kts | 261° |
| 2026-05-08 12:17 | 47.80851 | 10.91758 | 13837 ft | 311 kts | 260° |
| 2026-05-08 12:18 | 47.80509 | 10.88591 | 13422 ft | 309 kts | 261° |
| 2026-05-08 12:18 | 47.80175 | 10.85490 | 13032 ft | 307 kts | 260° |
| 2026-05-08 12:18 | 47.79839 | 10.82381 | 12756 ft | 300 kts | 260° |
| 2026-05-08 12:18 | 47.79512 | 10.79366 | 12561 ft | 291 kts | 260° |
| 2026-05-08 12:19 | 47.79187 | 10.76412 | 12228 ft | 288 kts | 260° |
| 2026-05-08 12:19 | 47.78864 | 10.73480 | 11880 ft | 286 kts | 260° |
| 2026-05-08 12:19 | 47.78543 | 10.70570 | 11532 ft | 284 kts | 260° |
| 2026-05-08 12:19 | 47.78225 | 10.67676 | 11185 ft | 283 kts | 260° |
| 2026-05-08 12:20 | 47.77907 | 10.64795 | 10838 ft | 281 kts | 259° |
| 2026-05-08 12:20 | 47.77591 | 10.61939 | 10498 ft | 280 kts | 259° |
| 2026-05-08 12:20 | 47.77274 | 10.59092 | 10214 ft | 278 kts | 259° |
| 2026-05-08 12:20 | 47.76960 | 10.56261 | 9898 ft | 277 kts | 259° |
| 2026-05-08 12:21 | 47.76646 | 10.53442 | 9545 ft | 275 kts | 259° |
| 2026-05-08 12:21 | 47.76334 | 10.50637 | 9164 ft | 275 kts | 259° |
| 2026-05-08 12:21 | 47.76021 | 10.47833 | 8807 ft | 274 kts | 260° |
| 2026-05-08 12:21 | 47.75710 | 10.45038 | 8425 ft | 274 kts | 260° |
| 2026-05-08 12:22 | 47.75399 | 10.42247 | 8086 ft | 273 kts | 260° |
| 2026-05-08 12:22 | 47.75092 | 10.39502 | 7762 ft | 272 kts | 260° |
| 2026-05-08 12:22 | 47.74850 | 10.36725 | 7398 ft | 271 kts | 268° |
| 2026-05-08 12:22 | 47.75005 | 10.33955 | 7133 ft | 266 kts | 282° |
| 2026-05-08 12:23 | 47.75551 | 10.31358 | 6938 ft | 262 kts | 291° |
| 2026-05-08 12:23 | 47.76220 | 10.28849 | 6642 ft | 260 kts | 291° |
| 2026-05-08 12:23 | 47.76877 | 10.26346 | 6319 ft | 260 kts | 291° |
| 2026-05-08 12:23 | 47.77528 | 10.23853 | 6063 ft | 255 kts | 291° |
| 2026-05-08 12:24 | 47.78155 | 10.21441 | 5961 ft | 243 kts | 291° |
| 2026-05-08 12:24 | 47.78752 | 10.19147 | 5726 ft | 236 kts | 291° |
| 2026-05-08 12:24 | 47.79347 | 10.16872 | 5458 ft | 237 kts | 291° |
| 2026-05-08 12:24 | 47.79947 | 10.14587 | 5308 ft | 238 kts | 291° |
| 2026-05-08 12:25 | 47.80549 | 10.12294 | 5187 ft | 238 kts | 292° |
| 2026-05-08 12:25 | 47.81333 | 10.10143 | 5055 ft | 236 kts | 306° |
| 2026-05-08 12:25 | 47.82443 | 10.08348 | 4930 ft | 235 kts | 320° |
| 2026-05-08 12:25 | 47.83797 | 10.06994 | 4807 ft | 235 kts | 330° |
| 2026-05-08 12:26 | 47.85188 | 10.05782 | 4678 ft | 235 kts | 330° |
| 2026-05-08 12:26 | 47.86594 | 10.04541 | 4559 ft | 234 kts | 330° |
| 2026-05-08 12:26 | 47.88044 | 10.03471 | 4411 ft | 233 kts | 346° |
| 2026-05-08 12:26 | 47.89641 | 10.03452 | 4288 ft | 231 kts | 15° |
| 2026-05-08 12:27 | 47.91035 | 10.04600 | 4175 ft | 231 kts | 44° |
| 2026-05-08 12:27 | 47.91933 | 10.06492 | 4092 ft | 218 kts | 59° |
| 2026-05-08 12:27 | 47.92686 | 10.08394 | 4090 ft | 205 kts | 58° |
| 2026-05-08 12:27 | 47.93370 | 10.10116 | 3996 ft | 181 kts | 58° |
| 2026-05-08 12:28 | 47.93976 | 10.11635 | 3794 ft | 162 kts | 58° |
| 2026-05-08 12:28 | 47.94541 | 10.13049 | 3601 ft | 155 kts | 59° |
| 2026-05-08 12:28 | 47.95090 | 10.14425 | 3409 ft | 154 kts | 58° |
| 2026-05-08 12:28 | 47.95632 | 10.15783 | 3196 ft | 151 kts | 58° |
| 2026-05-08 12:29 | 47.96169 | 10.17131 | 2977 ft | 149 kts | 58° |
| 2026-05-08 12:29 | 47.96696 | 10.18453 | 2802 ft | 147 kts | 59° |
| 2026-05-08 12:29 | 47.97215 | 10.19735 | 2538 ft | 143 kts | 58° |
| 2026-05-08 12:29 | 47.97716 | 10.20986 | 2381 ft | 139 kts | 60° |
| 2026-05-08 12:30 | 47.98201 | 10.22223 | 2157 ft | 137 kts | 60° |
| 2026-05-08 12:30 | 47.98664 | 10.23397 | 2079 ft | 117 kts | 59° |
| 2026-05-08 12:30 | 47.98942 | 10.24105 | 2071 ft | 57 kts | 59° |
| 2026-05-08 12:30 | 47.99140 | 10.24603 | 2067 ft | 54 kts | 59° |
| 2026-05-08 12:31 | 47.99226 | 10.24818 | 2067 ft | 7 kts | 59° |
| 2026-05-08 12:31 | 47.99219 | 10.24895 | 2066 ft | 9 kts | 129° |
| 2026-05-08 12:31 | 47.99162 | 10.24902 | 2065 ft | 10 kts | 224° |
| 2026-05-08 12:31 | 47.99124 | 10.24821 | 2066 ft | 9 kts | 239° |
| 2026-05-08 12:32 | 47.99091 | 10.24736 | 2067 ft | 9 kts | 239° |
| 2026-05-08 12:32 | 47.99048 | 10.24632 | 2069 ft | 15 kts | 238° |
| 2026-05-08 12:32 | 47.98986 | 10.24480 | 2071 ft | 20 kts | 239° |
| 2026-05-08 12:32 | 47.98907 | 10.24277 | 2073 ft | 24 kts | 239° |
| 2026-05-08 12:33 | 47.98822 | 10.24064 | 2077 ft | 23 kts | 240° |
| 2026-05-08 12:33 | 47.98750 | 10.23881 | 2078 ft | 12 kts | 252° |
| 2026-05-08 12:33 | 47.98809 | 10.23789 | 2077 ft | 16 kts | 326° |
| 2026-05-08 12:33 | 47.98908 | 10.23677 | 2079 ft | 18 kts | 294° |
| 2026-05-08 12:34 | 47.98879 | 10.23504 | 2077 ft | 19 kts | 250° |
| 2026-05-08 12:34 | 47.98843 | 10.23353 | 2077 ft | 6 kts | 250° |
| 2026-05-08 12:34 | 47.98826 | 10.23286 | 2077 ft | 8 kts | 250° |
| 2026-05-08 12:34 | 47.98829 | 10.23222 | 2079 ft | 4 kts | 338° |
| 2026-05-08 12:35 | 47.98858 | 10.23219 | 2079 ft | 4 kts | 20° |
| 2026-05-08 12:35 | 47.98868 | 10.23238 | 2076 ft | 0 kts | 51° |
| 2026-05-08 12:35 | 47.98868 | 10.23239 | 2076 ft | 0 kts | 49° |